createdAt,value
2022-08-30T00:02:04.961Z,101753.31
2022-08-30T00:07:07.035Z,101764.13
2022-08-30T00:12:09.791Z,101763.97
2022-08-30T00:17:11.778Z,101762.13
2022-08-30T00:22:13.787Z,101763.13
2022-08-30T00:27:15.995Z,101766.81
2022-08-30T00:32:21.471Z,101757.06
2022-08-30T00:37:23.731Z,101749.13
2022-08-30T00:42:26.670Z,101756.22
2022-08-30T00:47:28.781Z,101754.38
2022-08-30T00:52:30.910Z,101765.16
2022-08-30T00:57:34.743Z,101755.38
2022-08-30T01:02:37.093Z,101767.16
2022-08-30T01:07:40.111Z,101764.47
2022-08-30T01:12:43.688Z,101772.72
2022-08-30T01:17:47.982Z,101770.00
2022-08-30T01:22:50.802Z,101752.97
2022-08-30T01:27:59.227Z,101761.75
2022-08-30T01:33:04.298Z,101764.63
2022-08-30T01:38:06.651Z,101755.69
2022-08-30T01:43:08.999Z,101753.97
2022-08-30T01:48:13.063Z,101755.69
2022-08-30T01:53:15.964Z,101743.03
2022-08-30T01:58:18.341Z,101748.59
2022-08-30T02:03:20.468Z,101750.63
2022-08-30T02:08:22.654Z,101747.09
2022-08-30T02:13:25.039Z,101739.00
2022-08-30T02:18:28.065Z,101734.59
2022-08-30T02:23:31.515Z,101733.91
2022-08-30T02:28:33.908Z,101730.38
2022-08-30T02:33:36.096Z,101728.72
2022-08-30T02:38:42.594Z,101726.31
2022-08-30T02:43:44.722Z,101725.47
2022-08-30T02:48:46.880Z,101726.31
2022-08-30T02:53:49.392Z,101721.78
2022-08-30T02:58:51.582Z,101706.41
2022-08-30T03:03:53.930Z,101722.63
2022-08-30T03:08:56.097Z,101718.06
2022-08-30T03:13:58.147Z,101719.94
2022-08-30T03:19:00.188Z,101722.78
2022-08-30T03:24:02.374Z,101733.56
2022-08-30T03:29:04.460Z,101728.66
2022-08-30T03:34:06.608Z,101724.28
2022-08-30T03:39:09.772Z,101719.72
2022-08-30T03:44:16.142Z,101724.97
2022-08-30T03:49:18.727Z,101720.41
2022-08-30T03:54:20.963Z,101726.81
2022-08-30T03:59:23.212Z,101713.34
2022-08-30T04:04:25.954Z,101711.50
2022-08-30T04:09:27.946Z,101710.47
2022-08-30T04:14:30.055Z,101714.19
2022-08-30T04:19:32.325Z,101705.94
2022-08-30T04:24:34.735Z,101707.78
2022-08-30T04:29:37.229Z,101705.94
2022-08-30T04:34:39.298Z,101699.69
2022-08-30T04:39:42.781Z,101703.41
2022-08-30T04:44:44.763Z,101713.19
2022-08-30T04:49:47.007Z,101724.81
2022-08-30T04:54:49.084Z,101729.34
2022-08-30T04:59:51.500Z,101722.44
2022-08-30T05:05:14.382Z,101728.66
2022-08-30T05:10:16.747Z,101726.13
2022-08-30T05:15:18.860Z,101725.97
2022-08-30T05:20:21.083Z,101726.81
2022-08-30T05:25:27.684Z,101719.72
2022-08-30T05:30:33.823Z,101739.44
2022-08-30T05:35:35.836Z,101739.59
2022-08-30T05:40:41.671Z,101739.44
2022-08-30T05:45:43.771Z,101739.44
2022-08-30T05:50:45.762Z,101743.00
2022-08-30T05:55:47.759Z,101749.22
2022-08-30T06:00:49.882Z,101760.00
2022-08-30T06:05:52.251Z,101742.09
2022-08-30T06:10:55.378Z,101762.84
2022-08-30T06:15:57.543Z,101760.31
2022-08-30T06:20:59.712Z,101756.63
2022-08-30T06:26:06.757Z,101754.94
2022-08-30T06:31:11.374Z,101766.41
2022-08-30T06:36:16.784Z,101774.34
2022-08-30T06:41:22.643Z,101778.03
2022-08-30T06:46:28.918Z,101782.44
2022-08-30T06:51:35.133Z,101775.19
2022-08-30T06:56:37.803Z,101780.41
2022-08-30T07:01:40.104Z,101767.94
2022-08-30T07:06:42.192Z,101777.69
2022-08-30T07:11:44.888Z,101773.16
2022-08-30T07:16:47.034Z,101772.00
2022-08-30T07:21:53.455Z,101770.16
2022-08-30T07:26:55.748Z,101768.31
2022-08-30T07:31:57.759Z,101780.78
2022-08-30T07:36:59.799Z,101792.38
2022-08-30T07:42:02.450Z,101779.75
2022-08-30T07:47:05.835Z,101780.59
2022-08-30T07:52:07.941Z,101790.38
2022-08-30T07:57:10.087Z,101804.72
2022-08-30T08:02:12.148Z,101817.34
2022-08-30T08:07:14.338Z,101806.41
2022-08-30T08:12:16.412Z,101811.78
2022-08-30T08:17:18.447Z,101819.88
2022-08-30T08:22:21.611Z,101812.78
2022-08-30T08:27:24.970Z,101819.03
2022-08-30T08:32:27.027Z,101839.59
2022-08-30T08:37:29.147Z,101830.66
2022-08-30T08:42:51.569Z,101829.81
2022-08-30T08:47:59.009Z,101827.28
2022-08-30T08:53:45.464Z,101822.72
2022-08-30T08:58:53.710Z,101825.28
2022-08-30T09:03:58.674Z,101840.47
2022-08-30T09:09:01.019Z,101829.66
2022-08-30T09:14:09.059Z,101832.38
2022-08-30T09:19:28.470Z,101823.44
2022-08-30T09:25:01.891Z,101823.44
2022-08-30T09:35:49.361Z,101832.38
2022-08-30T09:41:01.046Z,101835.91
2022-08-30T09:46:03.047Z,101835.91
2022-08-30T09:51:11.626Z,101841.31
2022-08-30T09:56:38.044Z,101851.91
2022-08-30T10:01:46.364Z,101855.63
2022-08-30T10:07:06.842Z,101868.09
2022-08-30T10:12:33.789Z,101870.13
2022-08-30T10:17:53.031Z,101877.22
2022-08-30T10:23:07.264Z,101877.22
2022-08-30T10:28:27.583Z,101874.66
2022-08-30T10:33:52.781Z,101874.66
2022-08-30T10:38:56.694Z,101863.72
2022-08-30T10:44:06.658Z,101808.75
2022-08-30T10:49:17.477Z,101803.56
2022-08-30T10:54:51.986Z,101741.34
2022-08-30T11:00:00.905Z,101798.81
2022-08-30T11:05:17.323Z,101850.75
2022-08-30T11:10:37.299Z,101854.16
2022-08-30T11:15:59.977Z,101848.91
2022-08-30T11:21:38.735Z,101830.88
2022-08-30T11:26:47.056Z,101822.78
2022-08-30T11:31:49.075Z,101819.94
2022-08-30T11:36:51.036Z,101801.88
2022-08-30T11:42:22.237Z,101796.47
2022-08-30T11:47:47.737Z,101774.09
2022-08-30T11:52:57.056Z,101769.34
2022-08-30T11:58:05.194Z,101754.03
2022-08-30T12:03:33.215Z,101727.06
2022-08-30T12:08:56.559Z,101721.66
2022-08-30T12:14:09.031Z,101718.81
2022-08-30T12:19:20.780Z,101721.50
2022-08-30T12:24:32.716Z,101730.44
2022-08-30T12:29:35.142Z,101729.41
2022-08-30T12:34:46.012Z,101738.38
2022-08-30T12:39:53.398Z,101745.44
2022-08-30T12:44:59.316Z,101742.06
2022-08-30T12:50:01.620Z,101774.09
2022-08-30T12:55:17.128Z,101774.09
2022-08-30T13:00:33.672Z,101767.88
2022-08-30T13:05:45.460Z,101746.84
2022-08-30T13:11:08.102Z,101742.53
2022-08-30T13:16:26.320Z,101737.00
2022-08-30T13:21:33.755Z,101720.47
2022-08-30T13:26:37.997Z,101720.75
2022-08-30T13:31:41.968Z,101716.88
2022-08-30T13:36:53.268Z,101697.69
2022-08-30T13:41:56.123Z,101699.03
2022-08-30T13:47:37.007Z,101701.28
2022-08-30T13:52:39.724Z,101690.53
2022-08-30T13:57:57.407Z,101686.00
2022-08-30T14:03:00.234Z,101686.47
2022-08-30T14:08:02.674Z,101667.94
2022-08-30T14:13:10.197Z,101669.00
2022-08-30T14:18:17.632Z,101665.91
2022-08-30T14:23:20.838Z,101656.94
2022-08-30T14:28:23.649Z,101664.59
2022-08-30T14:33:26.342Z,101657.53
2022-08-30T14:38:28.602Z,101652.53
2022-08-30T14:43:30.640Z,101635.56
2022-08-30T14:48:32.990Z,101633.41
2022-08-30T14:53:34.890Z,101618.97
2022-08-30T14:58:38.852Z,101611.31
2022-08-30T15:03:42.180Z,101611.59
2022-08-30T15:08:47.711Z,101617.47
2022-08-30T15:13:52.999Z,101621.81
2022-08-30T15:18:56.934Z,101607.06
2022-08-30T15:24:02.355Z,101604.50
2022-08-30T15:29:04.681Z,101593.00
2022-08-30T15:34:08.626Z,101582.47
2022-08-30T15:39:12.811Z,101579.38
2022-08-30T15:44:16.585Z,101569.69
2022-08-30T15:49:21.218Z,101567.56
2022-08-30T15:54:24.103Z,101568.88
2022-08-30T15:59:31.057Z,101564.75
2022-08-30T16:04:33.084Z,101569.84
2022-08-30T16:09:36.778Z,101574.56
2022-08-30T16:14:40.497Z,101577.44
2022-08-30T16:19:43.572Z,101572.03
2022-08-30T16:24:46.658Z,101562.97
2022-08-30T16:29:50.193Z,101561.31
2022-08-30T16:34:52.332Z,101552.09
2022-08-30T16:39:54.282Z,101548.59
2022-08-30T16:44:57.374Z,101557.41
2022-08-30T16:50:00.788Z,101545.75
2022-08-30T16:55:02.792Z,101553.03
2022-08-30T17:00:13.366Z,101556.56
2022-08-30T17:05:16.011Z,101563.28
2022-08-30T17:10:19.223Z,101556.34
2022-08-30T17:15:27.345Z,101540.78
2022-08-30T17:20:31.889Z,101552.78
2022-08-30T17:25:36.952Z,101540.78
2022-08-30T17:30:39.177Z,101531.88
2022-08-30T17:35:42.447Z,101538.97
2022-08-30T17:40:44.531Z,101528.34
2022-08-30T17:45:46.618Z,101525.88
2022-08-30T17:50:56.218Z,101532.63
2022-08-30T17:55:58.723Z,101544.13
2022-08-30T18:01:14.386Z,101527.31
2022-08-30T18:06:16.573Z,101519.56
2022-08-30T18:11:18.640Z,101508.78
2022-08-30T18:16:20.810Z,101525.16
2022-08-30T18:21:23.753Z,101531.22
2022-08-30T18:26:28.029Z,101537.44
2022-08-30T18:31:30.563Z,101542.03
2022-08-30T18:36:33.413Z,101548.06
2022-08-30T18:41:42.988Z,101554.50
2022-08-30T18:46:56.066Z,101557.72
2022-08-30T18:52:10.071Z,101569.38
2022-08-30T18:57:12.601Z,101587.94
2022-08-30T19:02:16.783Z,101597.81
2022-08-30T19:07:19.712Z,101606.75
2022-08-30T19:12:22.951Z,101614.53
2022-08-30T19:17:26.604Z,101605.56
2022-08-30T19:22:39.854Z,101619.94
2022-08-30T19:27:51.846Z,101630.25
2022-08-30T19:32:54.185Z,101617.03
2022-08-30T19:37:56.461Z,101623.28
2022-08-30T19:42:59.320Z,101625.16
2022-08-30T19:48:02.090Z,101626.00
2022-08-30T19:53:04.286Z,101640.50
2022-08-30T19:58:06.396Z,101660.09
2022-08-30T20:03:08.471Z,101673.44
2022-08-30T20:08:11.766Z,101665.88
2022-08-30T20:13:14.113Z,101665.72
2022-08-30T20:18:16.609Z,101679.41
2022-08-30T20:23:22.788Z,101666.25
2022-08-30T20:28:27.722Z,101666.59
2022-08-30T20:33:29.758Z,101674.03
2022-08-30T20:38:32.444Z,101667.09
2022-08-30T20:43:34.389Z,101682.66
2022-08-30T20:48:36.838Z,101676.72
2022-08-30T20:53:39.044Z,101669.16
2022-08-30T20:58:42.499Z,101661.72
2022-08-30T21:03:46.856Z,101672.53
2022-08-30T21:08:48.996Z,101669.84
2022-08-30T21:13:50.994Z,101664.94
2022-08-30T21:18:53.531Z,101663.75
2022-08-30T21:24:00.033Z,101650.41
2022-08-30T21:29:02.141Z,101645.22
2022-08-30T21:34:04.782Z,101624.41
2022-08-30T21:39:07.846Z,101653.47
2022-08-30T21:44:20.731Z,101669.81
2022-08-30T21:49:24.448Z,101668.97
2022-08-30T21:54:28.317Z,101682.34
2022-08-30T21:59:34.139Z,101683.31
2022-08-30T22:04:36.147Z,101678.25
2022-08-30T22:09:38.358Z,101676.56
2022-08-30T22:14:40.429Z,101687.53
2022-08-30T22:19:42.816Z,101687.69
2022-08-30T22:24:44.838Z,101686.84
2022-08-30T22:29:47.261Z,101689.56
2022-08-30T22:34:50.330Z,101685.84
2022-08-30T22:39:52.528Z,101695.97
2022-08-30T22:44:54.583Z,101687.06
2022-08-30T22:49:56.818Z,101690.56
2022-08-30T22:54:59.361Z,101694.31
2022-08-30T23:00:04.959Z,101710.50
2022-08-30T23:05:07.290Z,101724.84
2022-08-30T23:10:10.513Z,101726.34
2022-08-30T23:15:15.629Z,101740.53
2022-08-30T23:20:18.004Z,101746.78
2022-08-30T23:25:41.677Z,101745.78
2022-08-30T23:31:04.833Z,101751.84
2022-08-30T23:36:30.109Z,101747.28
2022-08-30T23:41:50.664Z,101734.78
2022-08-30T23:47:11.190Z,101734.13
2022-08-30T23:52:32.093Z,101725.84
2022-08-30T23:57:53.031Z,101705.44
